• Join FlightAware (Why Join?)
  • Login
  • US Flag 
02:28PM EDT


 

Airport Tracker/Info


-or-


 

Live Flight TrackerFlight Track Log ✈ N350BV ✈ 11-May-2013 ✈ KPGA - KBFL

Flight Track Log - Related Links

Times and Time Zones

All times are in EDT time to prevent confusion due to time zone crossing. See the N350BV flight status page for this flight to view local times or setup timezone preferences in your user account.

Time Position Orientation Groundspeed Altitude Reporting Facility
EDT Latitude Longitude Course Direction KTS MPH feet Rate Location/Type
05:17PM 36.8744 -111.7839 252° West 266 306 16,300  Level Los Angeles Center
05:18PM 36.8564 -111.8711 256° West 265 305 19,000 2,520 Climbing Los Angeles Center
05:19PM 36.8369 -111.9578 254° West 260 299 21,600 1,920 Climbing Los Angeles Center
05:20PM 36.8172 -112.0586 256° West 287 330 23,000 1,260 Climbing Denver Center
05:21PM 36.7828 -112.2011 253° West 344 396 24,200 1,320 Climbing Denver Center
05:22PM 36.7550 -112.3222 254° West 361 415 25,800 1,260 Climbing Los Angeles Center
05:23PM 36.7278 -112.4489 255° West 373 429 26,900 1,020 Climbing Los Angeles Center
05:24PM 36.6992 -112.5769 254° West 381 438 28,000 1,020 Climbing Los Angeles Center
05:25PM 36.6681 -112.7097 254° West 395 455 29,100 1,020 Climbing Los Angeles Center
05:27PM 36.6378 -112.8425 254° West 397 457 30,200 900 Climbing Los Angeles Center
05:28PM 36.6006 -113.0019 254° West 398 458 31,000 720 Climbing Los Angeles Center
05:29PM 36.5681 -113.1408 254° West 411 473 31,700 960 Climbing Los Angeles Center
05:30PM 36.5367 -113.2781 254° West 413 475 33,100 1,320 Climbing Los Angeles Center
05:31PM 36.5050 -113.4117 254° West 405 466 34,500 1,260 Climbing Los Angeles Center
05:32PM 36.4703 -113.5594 254° West 401 461 36,000 600 Climbing Los Angeles Center
05:33PM 36.4322 -113.7256 254° West 416 479 36,000  Level Los Angeles Center
05:34PM 36.3967 -113.8719 253° West 436 502 36,000  Level Los Angeles Center
05:35PM 36.3617 -114.0194 254° West 444 511 36,000  Level Los Angeles Center
05:36PM 36.3256 -114.1653 253° West 443 510 36,000  Level Los Angeles Center
05:37PM 36.2903 -114.3111 253° West 441 507 36,000  Level Los Angeles Center
05:38PM 36.2467 -114.4864 253° West 442 509 36,000  Level Los Angeles Center
05:39PM 36.2111 -114.6300 253° West 438 504 36,000  Level Los Angeles Center
05:40PM 36.1756 -114.7747 253° West 438 504 36,000  Level Los Angeles Center
05:41PM 36.1408 -114.9214 254° West 440 506 36,000  Level Los Angeles Center
05:42PM 36.1036 -115.0664 252° West 442 509 36,000  Level Los Angeles Center
05:43PM 36.0708 -115.2133 255° West 441 507 36,000  Level Los Angeles Center
05:44PM 36.0522 -115.3614 261° West 433 498 36,000  Level Los Angeles Center
05:45PM 36.0283 -115.5408 261° West 435 501 36,000  Level Los Angeles Center
05:46PM 36.0078 -115.6906 260° West 436 502 36,000  Level Los Angeles Center
05:47PM 35.9867 -115.8394 260° West 436 502 36,000  Level Los Angeles Center
05:48PM 35.9697 -115.9622 260° West 435 501 36,000  Level Los Angeles Center
05:49PM 35.9447 -116.1372 260° West 434 499 36,000  Level Los Angeles Center
05:50PM 35.9247 -116.2831 260° West 433 498 36,000  Level Los Angeles Center
05:52PM 35.9028 -116.4297 260° West 435 501 36,000  Level Los Angeles Center
05:53PM 35.8828 -116.5747 260° West 433 498 36,000  Level Los Angeles Center
05:54PM 35.8531 -116.7781 260° West 433 498 36,000  Level Los Angeles Center
05:55PM 35.8317 -116.9200 260° West 428 493 36,000  Level Los Angeles Center
05:56PM 35.7831 -117.0558 246° West 435 501 36,000  Level Los Angeles Center
05:57PM 35.7292 -117.1914 244° Southwest 441 507 36,100 -1,200 Climbing Los Angeles Center
05:58PM 35.6767 -117.3244 244° Southwest 438 504 33,600 -2,580 Descending Los Angeles Center
05:59PM 35.6200 -117.4539 242° Southwest 437 503 30,800 -3,000 Descending Los Angeles Center
06:00PM 35.5317 -117.5933 232° Southwest 437 503 27,500 -3,060 Descending Los Angeles Center
06:01PM 35.4589 -117.7114 233° Southwest 437 503 24,700 -2,760 Descending Los Angeles Center
06:02PM 35.3964 -117.8283 237° Southwest 422 486 21,900 -2,760 Descending Los Angeles Center
06:03PM 35.3597 -117.9500 250° West 391 450 19,100 -2,580 Descending Los Angeles Center
06:04PM 35.3244 -118.0642 249° West 371 427 16,600 -2,220 Descending Los Angeles Center
06:05PM 35.3167 -118.1981 266° West 335 386 14,600 -1,440 Descending Los Angeles Center
06:06PM 35.3231 -118.3025 274° West 315 362 13,700 -960 Descending Los Angeles Center
06:07PM 35.3294 -118.3958 275° West 283 326 12,700 -1,020 Descending Los Angeles Center
06:08PM 35.3350 -118.5044 274° West 292 336 11,600 -1,200 Descending Los Angeles Center
06:09PM 35.3439 -118.6094 276° West 306 352 10,300 -1,740 Descending Los Angeles Center
06:10PM 35.3500 -118.7114 274° West 304 350 8,100 -2,160 Descending Los Angeles Center
06:11PM 35.3519 -118.8047 271° West 286 329 5,900 -2,160 Descending Los Angeles Center
06:13PM 35.3218 -118.9384 321° Northwest  Level FlightAware Approximate
06:20PM 35.4333 -119.0500 321° Northwest  Level FlightAware Approximate
06:21PM 35.4339 -119.0577 321° Northwest  Level Estimated
06:22PM 35.4333 -119.0500 321° Northwest  Level FlightAware Approximate
06:23PM 35.4339 -119.0577 321° Northwest  Level Estimated